sensor_id;sensor_type;location;lat;lon;timestamp;P1;durP1;ratioP1;P2;durP2;ratioP2
26113;SDS011;13966;48.828;9.064;2023-11-21T00:00:26;4.32;;;1.75;;
26113;SDS011;13966;48.828;9.064;2023-11-21T00:02:52;4.45;;;1.40;;
26113;SDS011;13966;48.828;9.064;2023-11-21T00:05:18;4.50;;;1.25;;
26113;SDS011;13966;48.828;9.064;2023-11-21T00:07:44;1.92;;;1.30;;
26113;SDS011;13966;48.828;9.064;2023-11-21T00:10:11;3.20;;;1.55;;
26113;SDS011;13966;48.828;9.064;2023-11-21T00:12:39;5.63;;;1.83;;
26113;SDS011;13966;48.828;9.064;2023-11-21T00:15:07;9.23;;;1.63;;
26113;SDS011;13966;48.828;9.064;2023-11-21T00:17:37;5.85;;;1.50;;
26113;SDS011;13966;48.828;9.064;2023-11-21T00:20:04;4.95;;;1.60;;
26113;SDS011;13966;48.828;9.064;2023-11-21T00:22:32;2.83;;;1.20;;
26113;SDS011;13966;48.828;9.064;2023-11-21T00:24:58;1.67;;;0.93;;
26113;SDS011;13966;48.828;9.064;2023-11-21T00:27:24;8.60;;;3.92;;
26113;SDS011;13966;48.828;9.064;2023-11-21T00:29:50;7.03;;;3.00;;
26113;SDS011;13966;48.828;9.064;2023-11-21T00:32:16;5.50;;;2.72;;
26113;SDS011;13966;48.828;9.064;2023-11-21T00:34:42;4.88;;;2.08;;
26113;SDS011;13966;48.828;9.064;2023-11-21T00:37:09;2.47;;;1.10;;
26113;SDS011;13966;48.828;9.064;2023-11-21T00:39:35;5.65;;;1.58;;
26113;SDS011;13966;48.828;9.064;2023-11-21T00:42:01;3.00;;;1.50;;
26113;SDS011;13966;48.828;9.064;2023-11-21T00:44:27;5.00;;;1.90;;
26113;SDS011;13966;48.828;9.064;2023-11-21T00:46:53;8.82;;;2.15;;
26113;SDS011;13966;48.828;9.064;2023-11-21T00:49:19;4.97;;;1.60;;
26113;SDS011;13966;48.828;9.064;2023-11-21T00:51:45;3.10;;;1.30;;
26113;SDS011;13966;48.828;9.064;2023-11-21T00:54:11;5.93;;;1.60;;
26113;SDS011;13966;48.828;9.064;2023-11-21T00:56:37;5.28;;;1.52;;
26113;SDS011;13966;48.828;9.064;2023-11-21T00:59:05;6.15;;;1.35;;
26113;SDS011;13966;48.828;9.064;2023-11-21T01:01:32;3.45;;;1.33;;
26113;SDS011;13966;48.828;9.064;2023-11-21T01:03:58;6.72;;;1.75;;
26113;SDS011;13966;48.828;9.064;2023-11-21T01:06:24;5.65;;;1.63;;
26113;SDS011;13966;48.828;9.064;2023-11-21T01:08:50;4.72;;;1.55;;
26113;SDS011;13966;48.828;9.064;2023-11-21T01:11:16;5.15;;;1.67;;
26113;SDS011;13966;48.828;9.064;2023-11-21T01:13:42;3.53;;;1.67;;
26113;SDS011;13966;48.828;9.064;2023-11-21T01:16:09;5.57;;;1.70;;
26113;SDS011;13966;48.828;9.064;2023-11-21T01:18:36;5.85;;;1.70;;
26113;SDS011;13966;48.828;9.064;2023-11-21T01:21:02;4.13;;;1.60;;
26113;SDS011;13966;48.828;9.064;2023-11-21T01:23:28;7.30;;;1.67;;
26113;SDS011;13966;48.828;9.064;2023-11-21T01:25:55;7.95;;;1.63;;
26113;SDS011;13966;48.828;9.064;2023-11-21T01:28:22;7.82;;;1.67;;
26113;SDS011;13966;48.828;9.064;2023-11-21T01:30:48;4.15;;;1.50;;
26113;SDS011;13966;48.828;9.064;2023-11-21T01:33:14;4.43;;;1.25;;
26113;SDS011;13966;48.828;9.064;2023-11-21T01:35:41;6.60;;;1.48;;
26113;SDS011;13966;48.828;9.064;2023-11-21T01:38:07;6.32;;;1.30;;
26113;SDS011;13966;48.828;9.064;2023-11-21T01:40:33;7.00;;;1.15;;
26113;SDS011;13966;48.828;9.064;2023-11-21T01:42:59;3.42;;;1.42;;
26113;SDS011;13966;48.828;9.064;2023-11-21T01:45:28;4.45;;;1.30;;
26113;SDS011;13966;48.828;9.064;2023-11-21T01:47:56;3.25;;;1.10;;
26113;SDS011;13966;48.828;9.064;2023-11-21T01:50:23;3.90;;;1.25;;
26113;SDS011;13966;48.828;9.064;2023-11-21T01:52:49;4.97;;;1.40;;
26113;SDS011;13966;48.828;9.064;2023-11-21T01:55:16;2.40;;;1.15;;
26113;SDS011;13966;48.828;9.064;2023-11-21T01:57:48;6.45;;;1.30;;
26113;SDS011;13966;48.828;9.064;2023-11-21T02:00:14;6.88;;;1.63;;
26113;SDS011;13966;48.828;9.064;2023-11-21T02:02:42;4.40;;;1.00;;
26113;SDS011;13966;48.828;9.064;2023-11-21T02:05:09;6.47;;;1.20;;
26113;SDS011;13966;48.828;9.064;2023-11-21T02:07:35;4.55;;;1.48;;
26113;SDS011;13966;48.828;9.064;2023-11-21T02:10:02;9.05;;;2.00;;
26113;SDS011;13966;48.828;9.064;2023-11-21T02:12:29;4.00;;;1.30;;
26113;SDS011;13966;48.828;9.064;2023-11-21T02:14:55;3.03;;;1.10;;
26113;SDS011;13966;48.828;9.064;2023-11-21T02:17:21;2.63;;;1.27;;
26113;SDS011;13966;48.828;9.064;2023-11-21T02:19:47;4.47;;;1.10;;
26113;SDS011;13966;48.828;9.064;2023-11-21T02:22:16;3.13;;;1.48;;
26113;SDS011;13966;48.828;9.064;2023-11-21T02:24:43;3.63;;;1.40;;
26113;SDS011;13966;48.828;9.064;2023-11-21T02:27:09;7.07;;;1.48;;
26113;SDS011;13966;48.828;9.064;2023-11-21T02:29:35;3.53;;;1.23;;
26113;SDS011;13966;48.828;9.064;2023-11-21T02:32:01;7.50;;;1.40;;
26113;SDS011;13966;48.828;9.064;2023-11-21T02:34:27;2.67;;;1.52;;
26113;SDS011;13966;48.828;9.064;2023-11-21T02:36:53;5.38;;;1.73;;
26113;SDS011;13966;48.828;9.064;2023-11-21T02:39:19;5.47;;;1.73;;
26113;SDS011;13966;48.828;9.064;2023-11-21T02:41:49;2.03;;;1.00;;
26113;SDS011;13966;48.828;9.064;2023-11-21T02:44:15;3.30;;;1.00;;
26113;SDS011;13966;48.828;9.064;2023-11-21T02:46:41;3.78;;;1.30;;
26113;SDS011;13966;48.828;9.064;2023-11-21T02:49:08;5.30;;;1.23;;
26113;SDS011;13966;48.828;9.064;2023-11-21T02:51:36;4.63;;;1.50;;
26113;SDS011;13966;48.828;9.064;2023-11-21T02:54:03;4.75;;;1.27;;
26113;SDS011;13966;48.828;9.064;2023-11-21T02:56:31;5.07;;;1.58;;
26113;SDS011;13966;48.828;9.064;2023-11-21T02:58:59;6.85;;;1.30;;
26113;SDS011;13966;48.828;9.064;2023-11-21T03:01:25;5.45;;;1.63;;
26113;SDS011;13966;48.828;9.064;2023-11-21T03:03:52;4.95;;;1.30;;
26113;SDS011;13966;48.828;9.064;2023-11-21T03:06:18;3.50;;;1.27;;
26113;SDS011;13966;48.828;9.064;2023-11-21T03:08:45;10.85;;;1.80;;
26113;SDS011;13966;48.828;9.064;2023-11-21T03:11:11;4.03;;;1.45;;
26113;SDS011;13966;48.828;9.064;2023-11-21T03:13:40;4.93;;;1.27;;
26113;SDS011;13966;48.828;9.064;2023-11-21T03:16:08;2.78;;;1.23;;
26113;SDS011;13966;48.828;9.064;2023-11-21T03:18:34;2.83;;;1.23;;
26113;SDS011;13966;48.828;9.064;2023-11-21T03:21:01;4.57;;;1.30;;
26113;SDS011;13966;48.828;9.064;2023-11-21T03:23:27;1.88;;;1.13;;
26113;SDS011;13966;48.828;9.064;2023-11-21T03:25:53;4.28;;;1.15;;
26113;SDS011;13966;48.828;9.064;2023-11-21T03:28:19;2.85;;;1.17;;
26113;SDS011;13966;48.828;9.064;2023-11-21T03:30:45;2.05;;;0.98;;
26113;SDS011;13966;48.828;9.064;2023-11-21T03:33:11;2.88;;;1.25;;
26113;SDS011;13966;48.828;9.064;2023-11-21T03:35:37;2.80;;;1.40;;
26113;SDS011;13966;48.828;9.064;2023-11-21T03:38:03;2.17;;;1.42;;
26113;SDS011;13966;48.828;9.064;2023-11-21T03:40:29;2.60;;;1.60;;
26113;SDS011;13966;48.828;9.064;2023-11-21T03:42:56;2.80;;;1.30;;
26113;SDS011;13966;48.828;9.064;2023-11-21T03:45:22;3.03;;;1.10;;
26113;SDS011;13966;48.828;9.064;2023-11-21T03:47:49;8.23;;;1.55;;
26113;SDS011;13966;48.828;9.064;2023-11-21T03:50:15;2.55;;;1.40;;
26113;SDS011;13966;48.828;9.064;2023-11-21T03:52:41;5.18;;;1.40;;
26113;SDS011;13966;48.828;9.064;2023-11-21T03:55:07;8.10;;;1.60;;
26113;SDS011;13966;48.828;9.064;2023-11-21T03:57:34;6.32;;;1.30;;
26113;SDS011;13966;48.828;9.064;2023-11-21T04:00:00;2.83;;;1.08;;
26113;SDS011;13966;48.828;9.064;2023-11-21T04:02:29;1.92;;;0.95;;
26113;SDS011;13966;48.828;9.064;2023-11-21T04:04:56;3.63;;;1.00;;
26113;SDS011;13966;48.828;9.064;2023-11-21T04:07:22;3.38;;;1.10;;
26113;SDS011;13966;48.828;9.064;2023-11-21T04:09:48;2.72;;;1.05;;
26113;SDS011;13966;48.828;9.064;2023-11-21T04:12:14;6.78;;;1.70;;
26113;SDS011;13966;48.828;9.064;2023-11-21T04:14:40;3.15;;;1.23;;
26113;SDS011;13966;48.828;9.064;2023-11-21T04:17:06;3.15;;;1.42;;
26113;SDS011;13966;48.828;9.064;2023-11-21T04:19:32;2.55;;;1.00;;
26113;SDS011;13966;48.828;9.064;2023-11-21T04:21:58;2.33;;;0.95;;
26113;SDS011;13966;48.828;9.064;2023-11-21T04:24:24;3.63;;;1.15;;
26113;SDS011;13966;48.828;9.064;2023-11-21T04:26:50;3.42;;;1.20;;
26113;SDS011;13966;48.828;9.064;2023-11-21T04:29:16;3.53;;;1.10;;
26113;SDS011;13966;48.828;9.064;2023-11-21T04:31:42;1.63;;;1.20;;
26113;SDS011;13966;48.828;9.064;2023-11-21T04:34:08;1.98;;;1.15;;
26113;SDS011;13966;48.828;9.064;2023-11-21T04:36:34;2.80;;;1.25;;
26113;SDS011;13966;48.828;9.064;2023-11-21T04:39:00;4.30;;;1.15;;
26113;SDS011;13966;48.828;9.064;2023-11-21T04:41:27;4.20;;;1.20;;
26113;SDS011;13966;48.828;9.064;2023-11-21T04:43:53;4.97;;;1.50;;
26113;SDS011;13966;48.828;9.064;2023-11-21T04:46:19;2.78;;;1.30;;
26113;SDS011;13966;48.828;9.064;2023-11-21T04:48:45;3.03;;;1.20;;
26113;SDS011;13966;48.828;9.064;2023-11-21T04:51:12;2.85;;;1.02;;
26113;SDS011;13966;48.828;9.064;2023-11-21T04:53:38;2.72;;;1.15;;
26113;SDS011;13966;48.828;9.064;2023-11-21T04:56:04;3.47;;;1.00;;
26113;SDS011;13966;48.828;9.064;2023-11-21T04:58:30;3.38;;;1.10;;
26113;SDS011;13966;48.828;9.064;2023-11-21T05:00:57;4.22;;;1.30;;
26113;SDS011;13966;48.828;9.064;2023-11-21T05:03:24;6.03;;;1.20;;
26113;SDS011;13966;48.828;9.064;2023-11-21T05:05:50;5.85;;;1.55;;
26113;SDS011;13966;48.828;9.064;2023-11-21T05:08:16;4.93;;;2.30;;
26113;SDS011;13966;48.828;9.064;2023-11-21T05:10:44;3.95;;;1.40;;
26113;SDS011;13966;48.828;9.064;2023-11-21T05:13:09;4.72;;;1.45;;
26113;SDS011;13966;48.828;9.064;2023-11-21T05:15:36;4.85;;;1.40;;
26113;SDS011;13966;48.828;9.064;2023-11-21T05:18:03;3.58;;;1.60;;
26113;SDS011;13966;48.828;9.064;2023-11-21T05:20:30;3.45;;;1.67;;
26113;SDS011;13966;48.828;9.064;2023-11-21T05:22:56;3.47;;;1.42;;
26113;SDS011;13966;48.828;9.064;2023-11-21T05:25:23;8.88;;;2.30;;
26113;SDS011;13966;48.828;9.064;2023-11-21T05:27:49;4.60;;;1.50;;
26113;SDS011;13966;48.828;9.064;2023-11-21T05:30:15;4.45;;;1.85;;
26113;SDS011;13966;48.828;9.064;2023-11-21T05:32:41;4.40;;;1.67;;
26113;SDS011;13966;48.828;9.064;2023-11-21T05:35:07;2.72;;;1.25;;
26113;SDS011;13966;48.828;9.064;2023-11-21T05:37:52;3.97;;;1.73;;
26113;SDS011;13966;48.828;9.064;2023-11-21T05:40:18;5.28;;;1.52;;
26113;SDS011;13966;48.828;9.064;2023-11-21T05:42:44;3.33;;;1.85;;
26113;SDS011;13966;48.828;9.064;2023-11-21T05:45:10;3.38;;;1.52;;
26113;SDS011;13966;48.828;9.064;2023-11-21T05:47:37;2.35;;;1.48;;
26113;SDS011;13966;48.828;9.064;2023-11-21T05:50:04;2.25;;;1.38;;
26113;SDS011;13966;48.828;9.064;2023-11-21T05:52:31;6.53;;;2.03;;
26113;SDS011;13966;48.828;9.064;2023-11-21T05:55:00;1.85;;;1.40;;
26113;SDS011;13966;48.828;9.064;2023-11-21T05:57:26;2.63;;;1.60;;
26113;SDS011;13966;48.828;9.064;2023-11-21T05:59:52;4.68;;;1.60;;
26113;SDS011;13966;48.828;9.064;2023-11-21T06:02:18;3.65;;;1.65;;
26113;SDS011;13966;48.828;9.064;2023-11-21T06:04:44;7.05;;;1.88;;
26113;SDS011;13966;48.828;9.064;2023-11-21T06:07:10;5.25;;;1.90;;
26113;SDS011;13966;48.828;9.064;2023-11-21T06:09:36;3.58;;;2.15;;
26113;SDS011;13966;48.828;9.064;2023-11-21T06:12:02;3.20;;;2.00;;
26113;SDS011;13966;48.828;9.064;2023-11-21T06:14:29;4.95;;;2.33;;
26113;SDS011;13966;48.828;9.064;2023-11-21T06:16:55;3.45;;;2.00;;
26113;SDS011;13966;48.828;9.064;2023-11-21T06:19:22;5.13;;;2.30;;
26113;SDS011;13966;48.828;9.064;2023-11-21T06:21:48;4.55;;;2.28;;
26113;SDS011;13966;48.828;9.064;2023-11-21T06:24:14;6.25;;;2.70;;
26113;SDS011;13966;48.828;9.064;2023-11-21T06:26:40;17.95;;;9.13;;
26113;SDS011;13966;48.828;9.064;2023-11-21T06:29:06;11.07;;;4.68;;
26113;SDS011;13966;48.828;9.064;2023-11-21T06:31:32;9.90;;;4.70;;
26113;SDS011;13966;48.828;9.064;2023-11-21T06:33:58;10.40;;;5.25;;
26113;SDS011;13966;48.828;9.064;2023-11-21T06:36:28;12.60;;;6.93;;
26113;SDS011;13966;48.828;9.064;2023-11-21T06:38:54;10.10;;;4.22;;
26113;SDS011;13966;48.828;9.064;2023-11-21T06:41:20;6.13;;;3.38;;
26113;SDS011;13966;48.828;9.064;2023-11-21T06:43:46;16.48;;;3.40;;
26113;SDS011;13966;48.828;9.064;2023-11-21T06:46:13;6.78;;;3.10;;
26113;SDS011;13966;48.828;9.064;2023-11-21T06:48:40;4.72;;;2.85;;
26113;SDS011;13966;48.828;9.064;2023-11-21T06:51:06;6.32;;;3.33;;
26113;SDS011;13966;48.828;9.064;2023-11-21T06:53:32;5.05;;;3.03;;
26113;SDS011;13966;48.828;9.064;2023-11-21T06:55:58;5.30;;;2.67;;
26113;SDS011;13966;48.828;9.064;2023-11-21T06:58:25;9.30;;;4.95;;
26113;SDS011;13966;48.828;9.064;2023-11-21T07:00:51;5.15;;;2.88;;
26113;SDS011;13966;48.828;9.064;2023-11-21T07:03:17;5.68;;;2.65;;
26113;SDS011;13966;48.828;9.064;2023-11-21T07:05:44;4.25;;;2.72;;
26113;SDS011;13966;48.828;9.064;2023-11-21T07:08:10;2.42;;;1.88;;
26113;SDS011;13966;48.828;9.064;2023-11-21T07:10:37;3.70;;;2.30;;
26113;SDS011;13966;48.828;9.064;2023-11-21T07:13:03;4.38;;;2.38;;
26113;SDS011;13966;48.828;9.064;2023-11-21T07:15:29;3.47;;;2.20;;
26113;SDS011;13966;48.828;9.064;2023-11-21T07:17:55;2.95;;;2.13;;
26113;SDS011;13966;48.828;9.064;2023-11-21T07:20:22;4.60;;;2.10;;
26113;SDS011;13966;48.828;9.064;2023-11-21T07:22:48;5.35;;;2.65;;
26113;SDS011;13966;48.828;9.064;2023-11-21T07:25:15;7.65;;;2.60;;
26113;SDS011;13966;48.828;9.064;2023-11-21T07:27:41;6.97;;;2.63;;
26113;SDS011;13966;48.828;9.064;2023-11-21T07:30:07;6.05;;;2.30;;
26113;SDS011;13966;48.828;9.064;2023-11-21T07:32:34;8.05;;;2.22;;
26113;SDS011;13966;48.828;9.064;2023-11-21T07:35:00;4.20;;;2.40;;
26113;SDS011;13966;48.828;9.064;2023-11-21T07:37:27;5.50;;;2.58;;
26113;SDS011;13966;48.828;9.064;2023-11-21T07:39:53;3.97;;;2.38;;
26113;SDS011;13966;48.828;9.064;2023-11-21T07:42:21;4.68;;;2.30;;
26113;SDS011;13966;48.828;9.064;2023-11-21T07:44:48;3.50;;;2.40;;
26113;SDS011;13966;48.828;9.064;2023-11-21T07:47:15;3.55;;;2.40;;
26113;SDS011;13966;48.828;9.064;2023-11-21T07:49:41;3.85;;;2.25;;
26113;SDS011;13966;48.828;9.064;2023-11-21T07:52:08;3.45;;;2.10;;
26113;SDS011;13966;48.828;9.064;2023-11-21T07:54:35;5.57;;;2.22;;
26113;SDS011;13966;48.828;9.064;2023-11-21T07:57:01;11.95;;;2.95;;
26113;SDS011;13966;48.828;9.064;2023-11-21T07:59:29;4.50;;;2.92;;
26113;SDS011;13966;48.828;9.064;2023-11-21T08:01:55;5.63;;;3.60;;
26113;SDS011;13966;48.828;9.064;2023-11-21T08:04:21;7.85;;;3.00;;
26113;SDS011;13966;48.828;9.064;2023-11-21T08:06:48;8.50;;;3.53;;
26113;SDS011;13966;48.828;9.064;2023-11-21T08:09:14;5.25;;;2.83;;
26113;SDS011;13966;48.828;9.064;2023-11-21T08:11:42;6.72;;;3.05;;
26113;SDS011;13966;48.828;9.064;2023-11-21T08:14:08;4.47;;;2.50;;
26113;SDS011;13966;48.828;9.064;2023-11-21T08:16:34;5.68;;;2.70;;
26113;SDS011;13966;48.828;9.064;2023-11-21T08:19:00;7.32;;;3.72;;
26113;SDS011;13966;48.828;9.064;2023-11-21T08:21:27;4.35;;;2.58;;
26113;SDS011;13966;48.828;9.064;2023-11-21T08:23:54;2.95;;;2.40;;
26113;SDS011;13966;48.828;9.064;2023-11-21T08:26:21;4.18;;;2.30;;
26113;SDS011;13966;48.828;9.064;2023-11-21T08:28:47;5.75;;;2.72;;
26113;SDS011;13966;48.828;9.064;2023-11-21T08:31:13;3.78;;;2.40;;
26113;SDS011;13966;48.828;9.064;2023-11-21T08:33:39;5.22;;;2.45;;
26113;SDS011;13966;48.828;9.064;2023-11-21T08:36:09;5.85;;;2.42;;
26113;SDS011;13966;48.828;9.064;2023-11-21T08:41:04;2.83;;;1.88;;
26113;SDS011;13966;48.828;9.064;2023-11-21T08:43:33;2.15;;;1.40;;
26113;SDS011;13966;48.828;9.064;2023-11-21T08:45:59;3.28;;;1.98;;
26113;SDS011;13966;48.828;9.064;2023-11-21T08:48:25;3.42;;;1.80;;
26113;SDS011;13966;48.828;9.064;2023-11-21T08:50:53;3.30;;;1.83;;
26113;SDS011;13966;48.828;9.064;2023-11-21T08:53:19;4.57;;;1.95;;
26113;SDS011;13966;48.828;9.064;2023-11-21T08:55:46;4.43;;;1.90;;
26113;SDS011;13966;48.828;9.064;2023-11-21T08:58:13;4.80;;;1.90;;
26113;SDS011;13966;48.828;9.064;2023-11-21T09:00:39;5.55;;;2.20;;
26113;SDS011;13966;48.828;9.064;2023-11-21T09:03:05;6.07;;;2.63;;
26113;SDS011;13966;48.828;9.064;2023-11-21T09:05:33;3.88;;;2.58;;
26113;SDS011;13966;48.828;9.064;2023-11-21T09:07:59;6.22;;;2.88;;
26113;SDS011;13966;48.828;9.064;2023-11-21T09:10:26;3.22;;;1.70;;
26113;SDS011;13966;48.828;9.064;2023-11-21T09:12:53;2.63;;;1.77;;
26113;SDS011;13966;48.828;9.064;2023-11-21T09:15:19;3.47;;;1.88;;
26113;SDS011;13966;48.828;9.064;2023-11-21T09:17:45;4.25;;;1.85;;
26113;SDS011;13966;48.828;9.064;2023-11-21T09:20:11;5.20;;;1.95;;
26113;SDS011;13966;48.828;9.064;2023-11-21T09:22:39;3.97;;;2.22;;
26113;SDS011;13966;48.828;9.064;2023-11-21T09:25:06;4.15;;;1.98;;
26113;SDS011;13966;48.828;9.064;2023-11-21T09:27:33;2.60;;;2.00;;
26113;SDS011;13966;48.828;9.064;2023-11-21T09:30:00;3.00;;;1.55;;
26113;SDS011;13966;48.828;9.064;2023-11-21T09:32:26;3.50;;;1.65;;
26113;SDS011;13966;48.828;9.064;2023-11-21T09:34:53;2.53;;;1.67;;
26113;SDS011;13966;48.828;9.064;2023-11-21T09:37:22;2.47;;;1.60;;
26113;SDS011;13966;48.828;9.064;2023-11-21T09:39:49;4.18;;;1.63;;
26113;SDS011;13966;48.828;9.064;2023-11-21T09:42:17;2.08;;;1.70;;
26113;SDS011;13966;48.828;9.064;2023-11-21T09:47:14;1.40;;;1.00;;
26113;SDS011;13966;48.828;9.064;2023-11-21T09:49:41;2.10;;;1.38;;
26113;SDS011;13966;48.828;9.064;2023-11-21T09:52:08;2.05;;;1.20;;
26113;SDS011;13966;48.828;9.064;2023-11-21T09:54:35;2.42;;;1.30;;
26113;SDS011;13966;48.828;9.064;2023-11-21T09:57:01;2.05;;;1.35;;
26113;SDS011;13966;48.828;9.064;2023-11-21T09:59:30;4.38;;;2.00;;
26113;SDS011;13966;48.828;9.064;2023-11-21T10:01:57;1.90;;;1.50;;
26113;SDS011;13966;48.828;9.064;2023-11-21T10:04:23;3.35;;;1.70;;
26113;SDS011;13966;48.828;9.064;2023-11-21T10:06:50;3.55;;;1.80;;
26113;SDS011;13966;48.828;9.064;2023-11-21T10:09:16;3.58;;;2.05;;
26113;SDS011;13966;48.828;9.064;2023-11-21T10:11:42;1.77;;;1.00;;
26113;SDS011;13966;48.828;9.064;2023-11-21T10:14:11;2.15;;;1.33;;
26113;SDS011;13966;48.828;9.064;2023-11-21T10:16:39;6.10;;;1.80;;
26113;SDS011;13966;48.828;9.064;2023-11-21T10:19:06;3.58;;;1.30;;
26113;SDS011;13966;48.828;9.064;2023-11-21T10:21:33;5.28;;;3.00;;
26113;SDS011;13966;48.828;9.064;2023-11-21T10:23:59;1.40;;;1.30;;
26113;SDS011;13966;48.828;9.064;2023-11-21T10:26:26;1.50;;;0.88;;
26113;SDS011;13966;48.828;9.064;2023-11-21T10:28:58;2.08;;;0.80;;
26113;SDS011;13966;48.828;9.064;2023-11-21T10:31:26;0.65;;;0.65;;
26113;SDS011;13966;48.828;9.064;2023-11-21T10:33:52;7.35;;;4.40;;
26113;SDS011;13966;48.828;9.064;2023-11-21T10:36:25;3.78;;;1.48;;
26113;SDS011;13966;48.828;9.064;2023-11-21T10:38:52;3.72;;;1.30;;
26113;SDS011;13966;48.828;9.064;2023-11-21T10:41:18;3.42;;;2.90;;
26113;SDS011;13966;48.828;9.064;2023-11-21T10:43:44;4.65;;;3.15;;
26113;SDS011;13966;48.828;9.064;2023-11-21T10:46:11;3.60;;;2.13;;
26113;SDS011;13966;48.828;9.064;2023-11-21T10:48:37;1.50;;;1.30;;
26113;SDS011;13966;48.828;9.064;2023-11-21T10:51:09;2.67;;;1.30;;
26113;SDS011;13966;48.828;9.064;2023-11-21T10:53:42;1.23;;;1.10;;
26113;SDS011;13966;48.828;9.064;2023-11-21T10:56:08;2.33;;;1.50;;
26113;SDS011;13966;48.828;9.064;2023-11-21T10:58:42;2.40;;;1.45;;
26113;SDS011;13966;48.828;9.064;2023-11-21T11:01:08;5.28;;;1.40;;
26113;SDS011;13966;48.828;9.064;2023-11-21T11:03:39;3.28;;;2.03;;
26113;SDS011;13966;48.828;9.064;2023-11-21T11:06:05;3.60;;;1.90;;
26113;SDS011;13966;48.828;9.064;2023-11-21T11:08:36;4.47;;;1.92;;
26113;SDS011;13966;48.828;9.064;2023-11-21T11:11:02;2.67;;;1.77;;
26113;SDS011;13966;48.828;9.064;2023-11-21T11:13:28;2.75;;;1.80;;
26113;SDS011;13966;48.828;9.064;2023-11-21T11:15:57;2.50;;;1.42;;
26113;SDS011;13966;48.828;9.064;2023-11-21T11:18:30;2.10;;;1.70;;
26113;SDS011;13966;48.828;9.064;2023-11-21T11:21:07;2.92;;;1.52;;
26113;SDS011;13966;48.828;9.064;2023-11-21T11:29:03;2.65;;;1.00;;
26113;SDS011;13966;48.828;9.064;2023-11-21T11:34:14;1.77;;;1.60;;
26113;SDS011;13966;48.828;9.064;2023-11-21T11:36:44;2.35;;;1.80;;
26113;SDS011;13966;48.828;9.064;2023-11-21T11:39:29;1.70;;;1.50;;
26113;SDS011;13966;48.828;9.064;2023-11-21T11:41:56;1.95;;;1.40;;
26113;SDS011;13966;48.828;9.064;2023-11-21T11:44:46;1.95;;;1.60;;
26113;SDS011;13966;48.828;9.064;2023-11-21T11:47:35;3.15;;;1.75;;
26113;SDS011;13966;48.828;9.064;2023-11-21T11:50:03;1.95;;;1.65;;
26113;SDS011;13966;48.828;9.064;2023-11-21T11:55:02;1.50;;;1.40;;
26113;SDS011;13966;48.828;9.064;2023-11-21T11:57:29;1.33;;;1.20;;
26113;SDS011;13966;48.828;9.064;2023-11-21T12:00:16;1.20;;;1.10;;
26113;SDS011;13966;48.828;9.064;2023-11-21T12:02:53;0.82;;;0.82;;
26113;SDS011;13966;48.828;9.064;2023-11-21T12:05:20;1.05;;;0.95;;
26113;SDS011;13966;48.828;9.064;2023-11-21T12:07:53;1.55;;;1.42;;
26113;SDS011;13966;48.828;9.064;2023-11-21T12:10:29;1.33;;;1.23;;
26113;SDS011;13966;48.828;9.064;2023-11-21T12:12:59;2.50;;;0.90;;
26113;SDS011;13966;48.828;9.064;2023-11-21T12:15:26;1.13;;;0.98;;
26113;SDS011;13966;48.828;9.064;2023-11-21T12:17:56;1.10;;;1.00;;
26113;SDS011;13966;48.828;9.064;2023-11-21T12:20:23;1.70;;;1.60;;
26113;SDS011;13966;48.828;9.064;2023-11-21T12:22:50;1.88;;;1.67;;
26113;SDS011;13966;48.828;9.064;2023-11-21T12:25:20;2.33;;;2.00;;
26113;SDS011;13966;48.828;9.064;2023-11-21T12:27:46;2.00;;;1.90;;
26113;SDS011;13966;48.828;9.064;2023-11-21T12:30:14;2.40;;;2.13;;
26113;SDS011;13966;48.828;9.064;2023-11-21T12:32:42;3.38;;;2.42;;
26113;SDS011;13966;48.828;9.064;2023-11-21T12:35:11;2.75;;;2.50;;
26113;SDS011;13966;48.828;9.064;2023-11-21T12:37:38;2.50;;;2.30;;
26113;SDS011;13966;48.828;9.064;2023-11-21T12:40:08;3.20;;;2.90;;
26113;SDS011;13966;48.828;9.064;2023-11-21T12:42:36;2.70;;;2.50;;
26113;SDS011;13966;48.828;9.064;2023-11-21T12:45:06;3.13;;;2.53;;
26113;SDS011;13966;48.828;9.064;2023-11-21T12:47:34;6.18;;;2.67;;
26113;SDS011;13966;48.828;9.064;2023-11-21T12:50:02;3.60;;;3.17;;
26113;SDS011;13966;48.828;9.064;2023-11-21T12:52:30;3.70;;;2.50;;
26113;SDS011;13966;48.828;9.064;2023-11-21T12:54:57;5.03;;;2.55;;
26113;SDS011;13966;48.828;9.064;2023-11-21T12:57:27;3.88;;;2.05;;
26113;SDS011;13966;48.828;9.064;2023-11-21T12:59:56;1.70;;;1.60;;
26113;SDS011;13966;48.828;9.064;2023-11-21T13:02:25;3.03;;;2.22;;
26113;SDS011;13966;48.828;9.064;2023-11-21T13:04:52;2.20;;;1.80;;
26113;SDS011;13966;48.828;9.064;2023-11-21T13:07:19;3.15;;;1.98;;
26113;SDS011;13966;48.828;9.064;2023-11-21T13:09:47;3.72;;;1.92;;
26113;SDS011;13966;48.828;9.064;2023-11-21T13:12:13;2.30;;;1.80;;
26113;SDS011;13966;48.828;9.064;2023-11-21T13:14:43;3.15;;;1.50;;
26113;SDS011;13966;48.828;9.064;2023-11-21T13:17:11;2.15;;;1.40;;
26113;SDS011;13966;48.828;9.064;2023-11-21T13:19:38;1.13;;;0.82;;
26113;SDS011;13966;48.828;9.064;2023-11-21T13:22:04;1.63;;;1.02;;
26113;SDS011;13966;48.828;9.064;2023-11-21T13:24:30;2.38;;;1.17;;
26113;SDS011;13966;48.828;9.064;2023-11-21T13:26:57;3.80;;;2.70;;
26113;SDS011;13966;48.828;9.064;2023-11-21T13:29:23;4.72;;;3.35;;
26113;SDS011;13966;48.828;9.064;2023-11-21T13:31:50;3.95;;;2.35;;
26113;SDS011;13966;48.828;9.064;2023-11-21T13:34:18;2.03;;;1.30;;
26113;SDS011;13966;48.828;9.064;2023-11-21T13:36:47;1.42;;;1.30;;
26113;SDS011;13966;48.828;9.064;2023-11-21T13:39:13;3.08;;;1.50;;
26113;SDS011;13966;48.828;9.064;2023-11-21T13:41:41;2.70;;;2.22;;
26113;SDS011;13966;48.828;9.064;2023-11-21T13:44:07;2.03;;;1.48;;
26113;SDS011;13966;48.828;9.064;2023-11-21T13:46:51;3.45;;;2.08;;
26113;SDS011;13966;48.828;9.064;2023-11-21T13:49:17;6.65;;;2.03;;
26113;SDS011;13966;48.828;9.064;2023-11-21T13:51:46;4.15;;;1.80;;
26113;SDS011;13966;48.828;9.064;2023-11-21T13:54:15;3.15;;;1.38;;
26113;SDS011;13966;48.828;9.064;2023-11-21T13:56:41;2.22;;;1.52;;
26113;SDS011;13966;48.828;9.064;2023-11-21T13:59:09;2.78;;;1.20;;
26113;SDS011;13966;48.828;9.064;2023-11-21T14:01:45;2.40;;;1.25;;
26113;SDS011;13966;48.828;9.064;2023-11-21T14:04:22;3.88;;;1.70;;
26113;SDS011;13966;48.828;9.064;2023-11-21T14:06:57;1.20;;;1.10;;
26113;SDS011;13966;48.828;9.064;2023-11-21T14:09:25;3.10;;;1.63;;
26113;SDS011;13966;48.828;9.064;2023-11-21T14:11:58;7.60;;;3.90;;
26113;SDS011;13966;48.828;9.064;2023-11-21T14:14:25;8.90;;;4.57;;
26113;SDS011;13966;48.828;9.064;2023-11-21T14:16:53;13.70;;;5.32;;
26113;SDS011;13966;48.828;9.064;2023-11-21T14:19:21;11.68;;;5.85;;
26113;SDS011;13966;48.828;9.064;2023-11-21T14:21:51;5.90;;;3.45;;
26113;SDS011;13966;48.828;9.064;2023-11-21T14:24:17;6.28;;;2.83;;
26113;SDS011;13966;48.828;9.064;2023-11-21T14:26:47;5.47;;;3.38;;
26113;SDS011;13966;48.828;9.064;2023-11-21T14:29:13;3.80;;;2.30;;
26113;SDS011;13966;48.828;9.064;2023-11-21T14:31:41;6.97;;;2.63;;
26113;SDS011;13966;48.828;9.064;2023-11-21T14:34:07;4.10;;;2.50;;
26113;SDS011;13966;48.828;9.064;2023-11-21T14:36:34;7.63;;;3.60;;
26113;SDS011;13966;48.828;9.064;2023-11-21T14:39:01;12.93;;;5.30;;
26113;SDS011;13966;48.828;9.064;2023-11-21T14:41:29;13.20;;;6.68;;
26113;SDS011;13966;48.828;9.064;2023-11-21T14:43:55;8.23;;;4.32;;
26113;SDS011;13966;48.828;9.064;2023-11-21T14:46:22;6.70;;;3.72;;
26113;SDS011;13966;48.828;9.064;2023-11-21T14:48:48;10.63;;;6.18;;
26113;SDS011;13966;48.828;9.064;2023-11-21T14:51:26;8.55;;;4.50;;
26113;SDS011;13966;48.828;9.064;2023-11-21T14:54:08;6.45;;;3.35;;
26113;SDS011;13966;48.828;9.064;2023-11-21T14:56:35;4.95;;;2.33;;
26113;SDS011;13966;48.828;9.064;2023-11-21T14:59:03;2.55;;;1.92;;
26113;SDS011;13966;48.828;9.064;2023-11-21T15:01:41;1.42;;;1.33;;
26113;SDS011;13966;48.828;9.064;2023-11-21T15:04:27;3.15;;;1.77;;